sensor_id;sensor_type;location;lat;lon;timestamp;pressure;altitude;pressure_sealevel;temperature;humidity
65376;BME280;51976;47.332;9.404;2023-07-13T00:01:25;92844.88;;;16.69;81.09
65376;BME280;51976;47.332;9.404;2023-07-13T00:03:51;92850.25;;;16.43;82.04
65376;BME280;51976;47.332;9.404;2023-07-13T00:06:17;92856.19;;;16.45;82.35
65376;BME280;51976;47.332;9.404;2023-07-13T00:08:42;92848.19;;;16.31;83.12
65376;BME280;51976;47.332;9.404;2023-07-13T00:11:08;92854.75;;;16.39;83.50
65376;BME280;51976;47.332;9.404;2023-07-13T00:13:35;92858.91;;;16.45;83.84
65376;BME280;51976;47.332;9.404;2023-07-13T00:16:03;92865.19;;;16.54;83.68
65376;BME280;51976;47.332;9.404;2023-07-13T00:18:28;92861.16;;;16.51;83.66
65376;BME280;51976;47.332;9.404;2023-07-13T00:20:55;92864.03;;;16.46;84.05
65376;BME280;51976;47.332;9.404;2023-07-13T00:23:22;92866.16;;;16.58;84.18
65376;BME280;51976;47.332;9.404;2023-07-13T00:25:48;92865.22;;;16.71;83.81
65376;BME280;51976;47.332;9.404;2023-07-13T00:28:15;92868.59;;;16.68;83.65
65376;BME280;51976;47.332;9.404;2023-07-13T00:30:41;92855.13;;;16.72;83.40
65376;BME280;51976;47.332;9.404;2023-07-13T00:33:06;92863.41;;;16.49;83.19
65376;BME280;51976;47.332;9.404;2023-07-13T00:35:32;92870.75;;;16.32;83.86
65376;BME280;51976;47.332;9.404;2023-07-13T00:37:58;92862.91;;;16.30;84.01
65376;BME280;51976;47.332;9.404;2023-07-13T00:40:23;92863.50;;;16.10;84.66
65376;BME280;51976;47.332;9.404;2023-07-13T00:42:56;92848.94;;;16.23;84.99
65376;BME280;51976;47.332;9.404;2023-07-13T00:46:09;92856.97;;;16.28;84.32
65376;BME280;51976;47.332;9.404;2023-07-13T00:48:32;92851.22;;;16.47;83.59
65376;BME280;51976;47.332;9.404;2023-07-13T00:51:00;92842.59;;;16.45;83.44
65376;BME280;51976;47.332;9.404;2023-07-13T00:53:27;92837.78;;;16.50;83.54
65376;BME280;51976;47.332;9.404;2023-07-13T00:55:55;92820.34;;;16.34;84.41
65376;BME280;51976;47.332;9.404;2023-07-13T00:58:22;92841.78;;;16.44;84.42
65376;BME280;51976;47.332;9.404;2023-07-13T01:00:48;92841.63;;;16.32;84.62
65376;BME280;51976;47.332;9.404;2023-07-13T01:03:15;92840.34;;;16.38;84.59
65376;BME280;51976;47.332;9.404;2023-07-13T01:05:40;92841.63;;;16.49;84.49
65376;BME280;51976;47.332;9.404;2023-07-13T01:08:06;92845.00;;;16.46;83.83
65376;BME280;51976;47.332;9.404;2023-07-13T01:10:32;92846.44;;;16.35;83.52
65376;BME280;51976;47.332;9.404;2023-07-13T01:13:08;92847.38;;;16.31;83.61
65376;BME280;51976;47.332;9.404;2023-07-13T01:15:43;92848.53;;;16.38;82.97
65376;BME280;51976;47.332;9.404;2023-07-13T01:18:15;92839.88;;;16.53;82.84
65376;BME280;51976;47.332;9.404;2023-07-13T01:20:50;92842.13;;;16.51;83.06
65376;BME280;51976;47.332;9.404;2023-07-13T01:23:16;92848.53;;;16.38;83.11
65376;BME280;51976;47.332;9.404;2023-07-13T01:25:41;92850.56;;;16.24;83.37
65376;BME280;51976;47.332;9.404;2023-07-13T01:28:08;92850.38;;;16.12;83.96
65376;BME280;51976;47.332;9.404;2023-07-13T01:30:38;92853.56;;;16.14;84.82
65376;BME280;51976;47.332;9.404;2023-07-13T01:33:08;92846.88;;;16.20;85.16
65376;BME280;51976;47.332;9.404;2023-07-13T01:35:35;92848.78;;;16.11;85.31
65376;BME280;51976;47.332;9.404;2023-07-13T01:38:01;92849.06;;;16.01;83.96
65376;BME280;51976;47.332;9.404;2023-07-13T01:40:27;92845.56;;;16.09;83.06
65376;BME280;51976;47.332;9.404;2023-07-13T01:42:53;92837.28;;;16.22;83.22
65376;BME280;51976;47.332;9.404;2023-07-13T01:45:18;92840.75;;;16.14;83.36
65376;BME280;51976;47.332;9.404;2023-07-13T01:47:44;92830.06;;;16.09;83.91
65376;BME280;51976;47.332;9.404;2023-07-13T01:50:09;92835.06;;;16.33;83.68
65376;BME280;51976;47.332;9.404;2023-07-13T01:52:34;92835.53;;;16.44;83.73
65376;BME280;51976;47.332;9.404;2023-07-13T01:55:00;92826.09;;;16.50;82.05
65376;BME280;51976;47.332;9.404;2023-07-13T01:57:25;92814.28;;;16.54;81.00
65376;BME280;51976;47.332;9.404;2023-07-13T01:59:51;92815.13;;;16.64;80.99
65376;BME280;51976;47.332;9.404;2023-07-13T02:02:16;92813.19;;;16.73;80.93
65376;BME280;51976;47.332;9.404;2023-07-13T02:04:41;92818.44;;;16.61;81.50
65376;BME280;51976;47.332;9.404;2023-07-13T02:07:08;92811.41;;;16.59;82.03
65376;BME280;51976;47.332;9.404;2023-07-13T02:09:34;92813.38;;;16.68;81.81
65376;BME280;51976;47.332;9.404;2023-07-13T02:12:00;92817.19;;;16.67;81.99
65376;BME280;51976;47.332;9.404;2023-07-13T02:14:25;92816.53;;;16.70;82.29
65376;BME280;51976;47.332;9.404;2023-07-13T02:16:51;92818.44;;;16.61;81.71
65376;BME280;51976;47.332;9.404;2023-07-13T02:19:16;92820.69;;;16.58;81.85
65376;BME280;51976;47.332;9.404;2023-07-13T02:21:42;92824.56;;;16.66;81.92
65376;BME280;51976;47.332;9.404;2023-07-13T02:24:08;92834.47;;;16.71;82.00
65376;BME280;51976;47.332;9.404;2023-07-13T02:26:34;92836.31;;;16.27;82.33
65376;BME280;51976;47.332;9.404;2023-07-13T02:29:00;92833.63;;;16.44;82.51
65376;BME280;51976;47.332;9.404;2023-07-13T02:31:25;92847.72;;;16.55;82.38
65376;BME280;51976;47.332;9.404;2023-07-13T02:33:51;92849.66;;;16.63;81.79
65376;BME280;51976;47.332;9.404;2023-07-13T02:36:16;92850.13;;;16.48;82.05
65376;BME280;51976;47.332;9.404;2023-07-13T02:38:42;92850.91;;;16.40;82.13
65376;BME280;51976;47.332;9.404;2023-07-13T02:41:08;92848.03;;;16.36;82.22
65376;BME280;51976;47.332;9.404;2023-07-13T02:43:34;92845.88;;;16.16;82.84
65376;BME280;51976;47.332;9.404;2023-07-13T02:46:00;92840.50;;;16.33;82.71
65376;BME280;51976;47.332;9.404;2023-07-13T02:48:32;92844.50;;;16.36;82.76
65376;BME280;51976;47.332;9.404;2023-07-13T02:50:57;92843.38;;;16.28;82.48
65376;BME280;51976;47.332;9.404;2023-07-13T02:53:23;92835.00;;;16.16;83.02
65376;BME280;51976;47.332;9.404;2023-07-13T02:55:48;92838.06;;;16.23;82.89
65376;BME280;51976;47.332;9.404;2023-07-13T02:58:14;92843.84;;;16.30;82.19
65376;BME280;51976;47.332;9.404;2023-07-13T03:00:43;92838.75;;;16.37;81.96
65376;BME280;51976;47.332;9.404;2023-07-13T03:03:09;92845.31;;;16.45;81.98
65376;BME280;51976;47.332;9.404;2023-07-13T03:05:37;92843.22;;;16.42;81.91
65376;BME280;51976;47.332;9.404;2023-07-13T03:08:02;92840.84;;;16.40;82.54
65376;BME280;51976;47.332;9.404;2023-07-13T03:10:29;92846.75;;;16.42;82.09
65376;BME280;51976;47.332;9.404;2023-07-13T03:12:54;92844.34;;;16.32;82.39
65376;BME280;51976;47.332;9.404;2023-07-13T03:15:20;92840.94;;;16.09;83.30
65376;BME280;51976;47.332;9.404;2023-07-13T03:17:45;92844.28;;;16.15;83.79
65376;BME280;51976;47.332;9.404;2023-07-13T03:20:11;92844.47;;;16.18;83.22
65376;BME280;51976;47.332;9.404;2023-07-13T03:22:37;92844.81;;;16.34;82.64
65376;BME280;51976;47.332;9.404;2023-07-13T03:25:02;92848.19;;;16.31;82.19
65376;BME280;51976;47.332;9.404;2023-07-13T03:27:28;92849.47;;;16.42;82.24
65376;BME280;51976;47.332;9.404;2023-07-13T03:29:53;92852.19;;;16.51;81.92
65376;BME280;51976;47.332;9.404;2023-07-13T03:32:18;92850.75;;;16.36;82.41
65376;BME280;51976;47.332;9.404;2023-07-13T03:34:44;92853.09;;;16.20;82.86
65376;BME280;51976;47.332;9.404;2023-07-13T03:37:09;92849.91;;;16.10;83.85
65376;BME280;51976;47.332;9.404;2023-07-13T03:39:34;92852.97;;;16.25;83.38
65376;BME280;51976;47.332;9.404;2023-07-13T03:42:00;92849.16;;;16.35;82.70
65376;BME280;51976;47.332;9.404;2023-07-13T03:44:25;92853.41;;;16.19;82.97
65376;BME280;51976;47.332;9.404;2023-07-13T03:46:51;92852.50;;;16.32;83.23
65376;BME280;51976;47.332;9.404;2023-07-13T03:49:16;92858.75;;;16.41;82.53
65376;BME280;51976;47.332;9.404;2023-07-13T03:51:41;92858.09;;;16.44;81.95
65376;BME280;51976;47.332;9.404;2023-07-13T03:54:07;92855.69;;;16.43;81.68
65376;BME280;51976;47.332;9.404;2023-07-13T03:56:32;92844.84;;;16.51;81.11
65376;BME280;51976;47.332;9.404;2023-07-13T03:58:58;92854.03;;;16.64;80.71
65376;BME280;51976;47.332;9.404;2023-07-13T04:01:24;92855.09;;;16.63;81.18
65376;BME280;51976;47.332;9.404;2023-07-13T04:03:51;92848.38;;;16.52;80.37
65376;BME280;51976;47.332;9.404;2023-07-13T04:06:28;92851.56;;;16.54;80.29
65376;BME280;51976;47.332;9.404;2023-07-13T04:08:56;92847.25;;;16.62;80.27
65376;BME280;51976;47.332;9.404;2023-07-13T04:11:24;92835.06;;;16.50;80.54
65376;BME280;51976;47.332;9.404;2023-07-13T04:13:50;92843.38;;;16.45;81.58
65376;BME280;51976;47.332;9.404;2023-07-13T04:16:16;92840.69;;;16.54;81.81
65376;BME280;51976;47.332;9.404;2023-07-13T04:18:42;92847.47;;;16.65;81.81
65376;BME280;51976;47.332;9.404;2023-07-13T04:21:08;92845.53;;;16.66;82.01
65376;BME280;51976;47.332;9.404;2023-07-13T04:23:36;92843.09;;;16.55;82.17
65376;BME280;51976;47.332;9.404;2023-07-13T04:26:01;92845.94;;;16.33;82.51
65376;BME280;51976;47.332;9.404;2023-07-13T04:28:27;92846.88;;;16.20;83.40
65376;BME280;51976;47.332;9.404;2023-07-13T04:30:52;92854.38;;;16.23;83.63
65376;BME280;51976;47.332;9.404;2023-07-13T04:33:18;92858.28;;;16.48;83.27
65376;BME280;51976;47.332;9.404;2023-07-13T04:35:48;92854.81;;;16.65;82.23
65376;BME280;51976;47.332;9.404;2023-07-13T04:38:14;92856.09;;;16.76;82.30
65376;BME280;51976;47.332;9.404;2023-07-13T04:40:44;92864.44;;;16.79;82.00
65376;BME280;51976;47.332;9.404;2023-07-13T04:43:09;92864.59;;;16.83;81.88
65376;BME280;51976;47.332;9.404;2023-07-13T04:45:35;92867.16;;;16.88;81.46
65376;BME280;51976;47.332;9.404;2023-07-13T04:48:01;92860.09;;;16.87;81.22
65376;BME280;51976;47.332;9.404;2023-07-13T04:50:26;92867.16;;;16.88;81.16
65376;BME280;51976;47.332;9.404;2023-07-13T04:52:51;92874.97;;;16.72;79.95
65376;BME280;51976;47.332;9.404;2023-07-13T04:55:18;92867.00;;;16.67;80.27
65376;BME280;51976;47.332;9.404;2023-07-13T04:57:44;92869.97;;;16.48;81.21
65376;BME280;51976;47.332;9.404;2023-07-13T05:00:10;92865.94;;;16.46;81.04
65376;BME280;51976;47.332;9.404;2023-07-13T05:02:38;92871.88;;;16.39;81.51
65376;BME280;51976;47.332;9.404;2023-07-13T05:05:03;92869.97;;;16.57;81.23
65376;BME280;51976;47.332;9.404;2023-07-13T05:07:29;92871.31;;;16.68;80.74
65376;BME280;51976;47.332;9.404;2023-07-13T05:09:54;92879.50;;;16.68;80.38
65376;BME280;51976;47.332;9.404;2023-07-13T05:12:20;92875.44;;;16.57;80.44
65376;BME280;51976;47.332;9.404;2023-07-13T05:14:46;92881.81;;;16.52;80.92
65376;BME280;51976;47.332;9.404;2023-07-13T05:17:11;92879.59;;;16.54;80.59
65376;BME280;51976;47.332;9.404;2023-07-13T05:19:36;92883.63;;;16.74;80.45
65376;BME280;51976;47.332;9.404;2023-07-13T05:22:02;92884.59;;;16.78;80.16
65376;BME280;51976;47.332;9.404;2023-07-13T05:24:29;92896.16;;;16.92;80.38
65376;BME280;51976;47.332;9.404;2023-07-13T05:26:55;92888.13;;;16.87;80.36
65376;BME280;51976;47.332;9.404;2023-07-13T05:29:21;92895.34;;;16.92;80.11
65376;BME280;51976;47.332;9.404;2023-07-13T05:31:47;92887.03;;;16.88;80.07
65376;BME280;51976;47.332;9.404;2023-07-13T05:34:13;92902.09;;;16.95;80.10
65376;BME280;51976;47.332;9.404;2023-07-13T05:36:39;92899.34;;;17.03;80.25
65376;BME280;51976;47.332;9.404;2023-07-13T05:39:05;92899.66;;;17.02;80.27
65376;BME280;51976;47.332;9.404;2023-07-13T05:41:30;92911.06;;;16.95;80.57
65376;BME280;51976;47.332;9.404;2023-07-13T05:43:56;92910.25;;;17.03;80.27
65376;BME280;51976;47.332;9.404;2023-07-13T05:46:21;92906.72;;;17.03;79.76
65376;BME280;51976;47.332;9.404;2023-07-13T05:48:46;92911.38;;;17.11;79.38
65376;BME280;51976;47.332;9.404;2023-07-13T05:51:12;92920.66;;;17.18;79.62
65376;BME280;51976;47.332;9.404;2023-07-13T05:53:38;92917.94;;;17.18;79.69
65376;BME280;51976;47.332;9.404;2023-07-13T05:56:03;92927.56;;;17.16;80.00
65376;BME280;51976;47.332;9.404;2023-07-13T05:58:29;92924.19;;;17.10;80.47
65376;BME280;51976;47.332;9.404;2023-07-13T06:01:02;92926.28;;;17.13;80.84
65376;BME280;51976;47.332;9.404;2023-07-13T06:03:28;92934.28;;;17.18;81.04
65376;BME280;51976;47.332;9.404;2023-07-13T06:05:54;92931.88;;;17.08;81.34
65376;BME280;51976;47.332;9.404;2023-07-13T06:08:19;92945.97;;;17.02;82.34
65376;BME280;51976;47.332;9.404;2023-07-13T06:10:45;92936.66;;;17.03;82.41
65376;BME280;51976;47.332;9.404;2023-07-13T06:13:10;92936.66;;;17.03;82.59
65376;BME280;51976;47.332;9.404;2023-07-13T06:15:36;92945.16;;;16.92;82.40
65376;BME280;51976;47.332;9.404;2023-07-13T06:18:01;92941.66;;;16.92;82.57
65376;BME280;51976;47.332;9.404;2023-07-13T06:20:26;92945.63;;;16.86;83.76
65376;BME280;51976;47.332;9.404;2023-07-13T06:22:52;92943.47;;;16.57;84.32
65376;BME280;51976;47.332;9.404;2023-07-13T06:25:17;92944.09;;;16.54;84.46
65376;BME280;51976;47.332;9.404;2023-07-13T06:27:43;92937.75;;;16.67;84.29
65376;BME280;51976;47.332;9.404;2023-07-13T06:30:09;92935.78;;;16.59;85.15
65376;BME280;51976;47.332;9.404;2023-07-13T06:32:34;92942.22;;;16.72;84.94
65376;BME280;51976;47.332;9.404;2023-07-13T06:34:59;92945.47;;;16.82;84.17
65376;BME280;51976;47.332;9.404;2023-07-13T06:37:25;92947.69;;;16.72;84.00
65376;BME280;51976;47.332;9.404;2023-07-13T06:39:50;92949.31;;;16.81;83.71
65376;BME280;51976;47.332;9.404;2023-07-13T06:42:16;92959.41;;;16.98;83.45
65376;BME280;51976;47.332;9.404;2023-07-13T06:44:42;92950.94;;;16.91;82.50
65376;BME280;51976;47.332;9.404;2023-07-13T06:47:07;92958.59;;;16.98;81.76
65376;BME280;51976;47.332;9.404;2023-07-13T06:49:33;92964.22;;;17.01;82.65
65376;BME280;51976;47.332;9.404;2023-07-13T06:51:58;92948.69;;;17.10;82.53
65376;BME280;51976;47.332;9.404;2023-07-13T06:54:24;92956.38;;;17.08;81.46
65376;BME280;51976;47.332;9.404;2023-07-13T06:56:50;92966.00;;;17.06;81.63
65376;BME280;51976;47.332;9.404;2023-07-13T06:59:15;92967.25;;;17.00;80.79
65376;BME280;51976;47.332;9.404;2023-07-13T07:01:41;92966.09;;;16.75;82.09
65376;BME280;51976;47.332;9.404;2023-07-13T07:04:06;92968.69;;;16.80;82.76
65376;BME280;51976;47.332;9.404;2023-07-13T07:06:31;92974.81;;;16.94;82.12
65376;BME280;51976;47.332;9.404;2023-07-13T07:08:57;92981.19;;;16.98;82.60
65376;BME280;51976;47.332;9.404;2023-07-13T07:11:24;92986.31;;;16.91;82.69
65376;BME280;51976;47.332;9.404;2023-07-13T07:13:50;92979.28;;;16.90;82.54
65376;BME280;51976;47.332;9.404;2023-07-13T07:16:16;92982.16;;;17.02;82.46
65376;BME280;51976;47.332;9.404;2023-07-13T07:18:42;92980.25;;;17.03;82.66
65376;BME280;51976;47.332;9.404;2023-07-13T07:21:07;92990.19;;;17.07;82.65
65376;BME280;51976;47.332;9.404;2023-07-13T07:23:33;92983.91;;;16.98;82.35
65376;BME280;51976;47.332;9.404;2023-07-13T07:25:58;92996.91;;;17.01;82.78
65376;BME280;51976;47.332;9.404;2023-07-13T07:28:24;92999.13;;;16.99;83.52
65376;BME280;51976;47.332;9.404;2023-07-13T07:30:53;92996.41;;;16.99;83.93
65376;BME280;51976;47.332;9.404;2023-07-13T07:33:18;93002.66;;;16.91;84.34
65376;BME280;51976;47.332;9.404;2023-07-13T07:35:44;92999.28;;;16.85;84.39
65376;BME280;51976;47.332;9.404;2023-07-13T07:38:09;93001.97;;;16.77;83.83
65376;BME280;51976;47.332;9.404;2023-07-13T07:40:39;93002.66;;;16.91;83.18
65376;BME280;51976;47.332;9.404;2023-07-13T07:43:05;93003.50;;;17.09;82.62
65376;BME280;51976;47.332;9.404;2023-07-13T07:45:31;93003.03;;;17.15;83.00
65376;BME280;51976;47.332;9.404;2023-07-13T07:47:56;93002.22;;;17.32;82.60
65376;BME280;51976;47.332;9.404;2023-07-13T07:50:27;92989.75;;;17.48;81.56
65376;BME280;51976;47.332;9.404;2023-07-13T07:52:53;92994.53;;;17.60;80.84
65376;BME280;51976;47.332;9.404;2023-07-13T07:55:19;92999.66;;;17.62;80.22
65376;BME280;51976;47.332;9.404;2023-07-13T07:57:44;92997.13;;;17.65;80.97
65376;BME280;51976;47.332;9.404;2023-07-13T08:00:10;92996.66;;;17.72;80.35
65376;BME280;51976;47.332;9.404;2023-07-13T08:02:35;92983.78;;;17.64;79.43
65376;BME280;51976;47.332;9.404;2023-07-13T08:05:00;92988.59;;;17.58;80.09
65376;BME280;51976;47.332;9.404;2023-07-13T08:07:26;92981.75;;;17.69;79.84
65376;BME280;51976;47.332;9.404;2023-07-13T08:09:52;92981.06;;;17.81;79.36
65376;BME280;51976;47.332;9.404;2023-07-13T08:12:18;92986.94;;;18.09;78.78
65376;BME280;51976;47.332;9.404;2023-07-13T08:14:43;92968.56;;;18.35;77.75
65376;BME280;51976;47.332;9.404;2023-07-13T08:17:09;92977.88;;;18.81;77.63
65376;BME280;51976;47.332;9.404;2023-07-13T08:19:34;92969.63;;;18.89;76.23
65376;BME280;51976;47.332;9.404;2023-07-13T08:22:00;92974.25;;;19.18;76.01
65376;BME280;51976;47.332;9.404;2023-07-13T08:24:25;92977.63;;;18.94;74.92
65376;BME280;51976;47.332;9.404;2023-07-13T08:26:51;92972.34;;;18.89;73.04
65376;BME280;51976;47.332;9.404;2023-07-13T08:29:17;92974.97;;;18.86;73.17
65376;BME280;51976;47.332;9.404;2023-07-13T08:31:43;92974.16;;;19.36;71.38
65376;BME280;51976;47.332;9.404;2023-07-13T08:34:08;92965.66;;;19.91;69.72
65376;BME280;51976;47.332;9.404;2023-07-13T08:36:33;92968.06;;;19.72;69.78
65376;BME280;51976;47.332;9.404;2023-07-13T08:38:59;92970.28;;;19.37;68.48
65376;BME280;51976;47.332;9.404;2023-07-13T08:41:24;92974.53;;;19.25;69.61
65376;BME280;51976;47.332;9.404;2023-07-13T08:43:52;92984.13;;;19.32;70.55
65376;BME280;51976;47.332;9.404;2023-07-13T08:46:38;92975.56;;;19.42;70.73
65376;BME280;51976;47.332;9.404;2023-07-13T08:49:12;92975.69;;;18.95;71.81
65376;BME280;51976;47.332;9.404;2023-07-13T08:51:53;92984.00;;;18.78;71.71
65376;BME280;51976;47.332;9.404;2023-07-13T08:54:26;92983.59;;;18.88;70.79
65376;BME280;51976;47.332;9.404;2023-07-13T08:56:54;92986.75;;;18.99;72.15
65376;BME280;51976;47.332;9.404;2023-07-13T08:59:24;92985.59;;;19.08;70.81
65376;BME280;51976;47.332;9.404;2023-07-13T09:02:17;92979.69;;;18.98;70.48
65376;BME280;51976;47.332;9.404;2023-07-13T09:05:00;92981.16;;;18.95;72.22
65376;BME280;51976;47.332;9.404;2023-07-13T09:07:56;92990.25;;;18.78;71.63
65376;BME280;51976;47.332;9.404;2023-07-13T09:10:44;92991.75;;;18.67;72.79
65376;BME280;51976;47.332;9.404;2023-07-13T09:13:22;92984.75;;;18.49;72.38
65376;BME280;51976;47.332;9.404;2023-07-13T09:15:52;92978.81;;;18.47;72.72
65376;BME280;51976;47.332;9.404;2023-07-13T09:18:33;93000.31;;;18.48;71.50
65376;BME280;51976;47.332;9.404;2023-07-13T09:21:04;92994.47;;;18.67;70.74
65376;BME280;51976;47.332;9.404;2023-07-13T09:23:33;92999.75;;;18.72;70.63
65376;BME280;51976;47.332;9.404;2023-07-13T09:26:10;92996.75;;;18.94;70.09
65376;BME280;51976;47.332;9.404;2023-07-13T09:28:40;92996.56;;;18.70;70.37
65376;BME280;51976;47.332;9.404;2023-07-13T09:31:19;92987.56;;;18.99;69.31
65376;BME280;51976;47.332;9.404;2023-07-13T09:33:47;92991.25;;;19.03;67.65
65376;BME280;51976;47.332;9.404;2023-07-13T09:36:24;92989.63;;;19.02;68.36
65376;BME280;51976;47.332;9.404;2023-07-13T09:39:14;92996.22;;;19.01;67.81
65376;BME280;51976;47.332;9.404;2023-07-13T09:42:15;92995.81;;;18.90;68.70
65376;BME280;51976;47.332;9.404;2023-07-13T09:44:58;92993.94;;;18.82;69.53
65376;BME280;51976;47.332;9.404;2023-07-13T09:47:27;92997.66;;;18.78;68.11
65376;BME280;51976;47.332;9.404;2023-07-13T09:49:58;92999.06;;;18.84;68.04
65376;BME280;51976;47.332;9.404;2023-07-13T09:52:24;93003.75;;;18.75;68.41
65376;BME280;51976;47.332;9.404;2023-07-13T09:54:52;93003.81;;;18.57;68.39
65376;BME280;51976;47.332;9.404;2023-07-13T09:57:24;92997.75;;;18.43;70.12
65376;BME280;51976;47.332;9.404;2023-07-13T09:59:52;92999.97;;;18.58;71.15
65376;BME280;51976;47.332;9.404;2023-07-13T10:02:31;92997.38;;;18.62;69.85
65376;BME280;51976;47.332;9.404;2023-07-13T10:05:05;92990.91;;;18.75;69.65
65376;BME280;51976;47.332;9.404;2023-07-13T10:07:38;92991.41;;;18.69;69.65
65376;BME280;51976;47.332;9.404;2023-07-13T10:10:15;93001.66;;;18.80;67.99
65376;BME280;51976;47.332;9.404;2023-07-13T10:12:40;93005.66;;;19.12;67.78
65376;BME280;51976;47.332;9.404;2023-07-13T10:15:18;93010.16;;;19.38;67.25
65376;BME280;51976;47.332;9.404;2023-07-13T10:17:45;92991.72;;;19.26;66.36
65376;BME280;51976;47.332;9.404;2023-07-13T10:20:10;92988.97;;;19.55;66.09
65376;BME280;51976;47.332;9.404;2023-07-13T10:22:59;92995.53;;;19.34;66.50
65376;BME280;51976;47.332;9.404;2023-07-13T10:25:29;92989.31;;;19.45;66.31
65376;BME280;51976;47.332;9.404;2023-07-13T10:28:04;93000.03;;;19.59;66.91
65376;BME280;51976;47.332;9.404;2023-07-13T10:30:35;93000.72;;;19.56;67.00
65376;BME280;51976;47.332;9.404;2023-07-13T10:33:02;92998.81;;;19.48;67.25
65376;BME280;51976;47.332;9.404;2023-07-13T10:35:30;93004.06;;;19.32;67.25
65376;BME280;51976;47.332;9.404;2023-07-13T10:38:03;93008.28;;;19.30;67.94
65376;BME280;51976;47.332;9.404;2023-07-13T10:40:43;93012.13;;;19.08;68.52
65376;BME280;51976;47.332;9.404;2023-07-13T10:43:20;92999.00;;;18.92;69.11
65376;BME280;51976;47.332;9.404;2023-07-13T10:45:48;93009.78;;;18.89;69.83
65376;BME280;51976;47.332;9.404;2023-07-13T10:48:15;93010.06;;;18.96;69.26
65376;BME280;51976;47.332;9.404;2023-07-13T10:50:44;93017.53;;;18.87;68.36
65376;BME280;51976;47.332;9.404;2023-07-13T10:53:28;93028.31;;;18.83;68.33
65376;BME280;51976;47.332;9.404;2023-07-13T10:55:58;93020.59;;;18.85;67.73
65376;BME280;51976;47.332;9.404;2023-07-13T10:58:40;93019.09;;;18.88;67.65
65376;BME280;51976;47.332;9.404;2023-07-13T11:01:15;93021.25;;;18.82;67.99
65376;BME280;51976;47.332;9.404;2023-07-13T11:03:54;93017.88;;;18.85;68.27
65376;BME280;51976;47.332;9.404;2023-07-13T11:06:36;93013.88;;;18.74;68.15
65376;BME280;51976;47.332;9.404;2023-07-13T11:09:31;93017.00;;;18.93;68.16
65376;BME280;51976;47.332;9.404;2023-07-13T11:12:01;93016.19;;;18.93;68.37
65376;BME280;51976;47.332;9.404;2023-07-13T11:14:31;93020.69;;;18.98;68.35
65376;BME280;51976;47.332;9.404;2023-07-13T11:17:35;93016.69;;;19.16;67.44
65376;BME280;51976;47.332;9.404;2023-07-13T11:20:22;93020.94;;;19.34;67.71
65376;BME280;51976;47.332;9.404;2023-07-13T11:25:37;93014.75;;;19.46;67.39
65376;BME280;51976;47.332;9.404;2023-07-13T11:28:17;93029.34;;;19.29;68.68
65376;BME280;51976;47.332;9.404;2023-07-13T11:30:46;93030.47;;;19.28;68.28
65376;BME280;51976;47.332;9.404;2023-07-13T11:33:23;93022.88;;;19.34;68.81
65376;BME280;51976;47.332;9.404;2023-07-13T11:36:00;93025.59;;;19.34;68.63
65376;BME280;51976;47.332;9.404;2023-07-13T11:38:35;93024.28;;;19.40;68.29
65376;BME280;51976;47.332;9.404;2023-07-13T11:41:05;93014.25;;;19.44;67.81
65376;BME280;51976;47.332;9.404;2023-07-13T11:43:32;93010.41;;;19.45;67.54
65376;BME280;51976;47.332;9.404;2023-07-13T11:46:12;93005.41;;;19.47;67.14
65376;BME280;51976;47.332;9.404;2023-07-13T11:48:37;93009.84;;;19.60;67.22
65376;BME280;51976;47.332;9.404;2023-07-13T11:51:04;92999.50;;;19.66;66.81
65376;BME280;51976;47.332;9.404;2023-07-13T11:53:44;93002.72;;;19.68;67.28
65376;BME280;51976;47.332;9.404;2023-07-13T11:56:10;93000.50;;;19.61;67.34
65376;BME280;51976;47.332;9.404;2023-07-13T11:58:36;93007.91;;;19.60;67.77
65376;BME280;51976;47.332;9.404;2023-07-13T12:01:02;93005.25;;;19.22;69.13
65376;BME280;51976;47.332;9.404;2023-07-13T12:03:30;93010.38;;;19.53;68.50
65376;BME280;51976;47.332;9.404;2023-07-13T12:06:03;93005.56;;;19.50;68.78
65376;BME280;51976;47.332;9.404;2023-07-13T12:08:31;93000.69;;;19.35;70.19
65376;BME280;51976;47.332;9.404;2023-07-13T12:10:59;93010.19;;;19.08;72.73
65376;BME280;51976;47.332;9.404;2023-07-13T12:13:26;93004.00;;;18.90;75.57
65376;BME280;51976;47.332;9.404;2023-07-13T12:15:52;93014.66;;;18.83;76.04
65376;BME280;51976;47.332;9.404;2023-07-13T12:18:23;93016.84;;;18.90;77.10
65376;BME280;51976;47.332;9.404;2023-07-13T12:20:56;93021.41;;;18.86;77.80
65376;BME280;51976;47.332;9.404;2023-07-13T12:23:26;93021.94;;;18.71;78.58
65376;BME280;51976;47.332;9.404;2023-07-13T12:25:53;93017.16;;;18.59;77.27
65376;BME280;51976;47.332;9.404;2023-07-13T12:28:35;93011.38;;;18.60;77.45
65376;BME280;51976;47.332;9.404;2023-07-13T12:31:04;93009.78;;;18.51;76.14
65376;BME280;51976;47.332;9.404;2023-07-13T12:33:31;93012.03;;;18.49;75.83
65376;BME280;51976;47.332;9.404;2023-07-13T12:36:00;93011.22;;;18.48;75.44
65376;BME280;51976;47.332;9.404;2023-07-13T12:38:27;93018.28;;;18.58;75.38
65376;BME280;51976;47.332;9.404;2023-07-13T12:40:53;93020.66;;;18.68;75.51
65376;BME280;51976;47.332;9.404;2023-07-13T12:43:22;93017.25;;;18.80;75.00
65376;BME280;51976;47.332;9.404;2023-07-13T12:45:55;93008.88;;;18.85;75.02
65376;BME280;51976;47.332;9.404;2023-07-13T12:48:21;93000.84;;;18.80;74.43
65376;BME280;51976;47.332;9.404;2023-07-13T12:50:49;93008.25;;;19.09;73.27
65376;BME280;51976;47.332;9.404;2023-07-13T12:53:19;93012.13;;;19.49;71.59
65376;BME280;51976;47.332;9.404;2023-07-13T12:55:52;93001.22;;;19.70;70.16
65376;BME280;51976;47.332;9.404;2023-07-13T12:58:28;93005.78;;;19.66;70.86
65376;BME280;51976;47.332;9.404;2023-07-13T13:00:57;93014.00;;;19.99;69.78
65376;BME280;51976;47.332;9.404;2023-07-13T13:03:31;93010.25;;;20.37;66.73
65376;BME280;51976;47.332;9.404;2023-07-13T13:06:02;93005.91;;;20.36;66.70
65376;BME280;51976;47.332;9.404;2023-07-13T13:08:29;93024.94;;;20.20;66.84
65376;BME280;51976;47.332;9.404;2023-07-13T13:10:55;93011.47;;;20.27;65.09